sensor_id;sensor_type;location;lat;lon;timestamp;P1;durP1;ratioP1;P2;durP2;ratioP2
74243;SDS011;62600;55.732;37.662;2022-09-03T00:03:43;1.33;;;0.90;;
74243;SDS011;62600;55.732;37.662;2022-09-03T00:05:24;1.10;;;0.80;;
74243;SDS011;62600;55.732;37.662;2022-09-03T00:07:02;1.58;;;1.00;;
74243;SDS011;62600;55.732;37.662;2022-09-03T00:10:26;3.00;;;0.98;;
74243;SDS011;62600;55.732;37.662;2022-09-03T00:12:13;1.95;;;0.70;;
74243;SDS011;62600;55.732;37.662;2022-09-03T00:13:58;1.75;;;0.80;;
74243;SDS011;62600;55.732;37.662;2022-09-03T00:15:33;2.33;;;1.60;;
74243;SDS011;62600;55.732;37.662;2022-09-03T00:17:10;3.50;;;0.85;;
74243;SDS011;62600;55.732;37.662;2022-09-03T00:18:46;2.17;;;0.90;;
74243;SDS011;62600;55.732;37.662;2022-09-03T00:20:32;1.17;;;0.70;;
74243;SDS011;62600;55.732;37.662;2022-09-03T00:22:08;2.05;;;0.93;;
74243;SDS011;62600;55.732;37.662;2022-09-03T00:23:44;1.10;;;0.90;;
74243;SDS011;62600;55.732;37.662;2022-09-03T00:25:41;2.17;;;1.00;;
74243;SDS011;62600;55.732;37.662;2022-09-03T00:27:13;1.35;;;0.80;;
74243;SDS011;62600;55.732;37.662;2022-09-03T00:29:02;2.72;;;0.77;;
74243;SDS011;62600;55.732;37.662;2022-09-03T00:30:39;1.10;;;0.63;;
74243;SDS011;62600;55.732;37.662;2022-09-03T00:34:15;1.25;;;0.80;;
74243;SDS011;62600;55.732;37.662;2022-09-03T00:37:41;1.83;;;0.80;;
74243;SDS011;62600;55.732;37.662;2022-09-03T00:39:14;3.30;;;1.00;;
74243;SDS011;62600;55.732;37.662;2022-09-03T00:44:32;1.63;;;0.70;;
74243;SDS011;62600;55.732;37.662;2022-09-03T00:49:51;2.97;;;1.00;;
74243;SDS011;62600;55.732;37.662;2022-09-03T00:51:49;2.20;;;0.80;;
74243;SDS011;62600;55.732;37.662;2022-09-03T00:55:09;3.60;;;0.90;;
74243;SDS011;62600;55.732;37.662;2022-09-03T00:56:47;1.65;;;1.00;;
74243;SDS011;62600;55.732;37.662;2022-09-03T01:00:35;2.33;;;1.20;;
74243;SDS011;62600;55.732;37.662;2022-09-03T01:02:15;1.40;;;1.02;;
74243;SDS011;62600;55.732;37.662;2022-09-03T01:13:31;1.75;;;1.10;;
74243;SDS011;62600;55.732;37.662;2022-09-03T01:21:34;1.48;;;1.02;;
74243;SDS011;62600;55.732;37.662;2022-09-03T01:24:01;2.65;;;1.33;;
74243;SDS011;62600;55.732;37.662;2022-09-03T01:26:54;2.22;;;1.60;;
74243;SDS011;62600;55.732;37.662;2022-09-03T01:28:43;2.10;;;0.90;;
74243;SDS011;62600;55.732;37.662;2022-09-03T01:30:23;2.22;;;1.00;;
74243;SDS011;62600;55.732;37.662;2022-09-03T01:33:37;2.03;;;1.00;;
74243;SDS011;62600;55.732;37.662;2022-09-03T01:35:15;5.72;;;1.60;;
74243;SDS011;62600;55.732;37.662;2022-09-03T01:36:59;1.48;;;1.02;;
74243;SDS011;62600;55.732;37.662;2022-09-03T01:42:01;2.65;;;1.35;;
74243;SDS011;62600;55.732;37.662;2022-09-03T01:43:51;3.45;;;1.13;;
74243;SDS011;62600;55.732;37.662;2022-09-03T01:47:51;3.28;;;1.15;;
74243;SDS011;62600;55.732;37.662;2022-09-03T01:54:28;1.55;;;0.80;;
74243;SDS011;62600;55.732;37.662;2022-09-03T01:58:19;3.60;;;1.08;;
74243;SDS011;62600;55.732;37.662;2022-09-03T02:01:42;3.00;;;1.42;;
74243;SDS011;62600;55.732;37.662;2022-09-03T02:03:18;2.08;;;1.13;;
74243;SDS011;62600;55.732;37.662;2022-09-03T02:06:30;4.13;;;1.27;;
74243;SDS011;62600;55.732;37.662;2022-09-03T02:08:05;2.30;;;1.05;;
74243;SDS011;62600;55.732;37.662;2022-09-03T02:09:37;2.13;;;1.20;;
74243;SDS011;62600;55.732;37.662;2022-09-03T02:11:08;2.42;;;1.23;;
74243;SDS011;62600;55.732;37.662;2022-09-03T02:12:39;1.25;;;0.88;;
74243;SDS011;62600;55.732;37.662;2022-09-03T02:14:13;3.33;;;1.23;;
74243;SDS011;62600;55.732;37.662;2022-09-03T02:15:44;1.58;;;1.20;;
74243;SDS011;62600;55.732;37.662;2022-09-03T02:17:17;2.08;;;1.38;;
74243;SDS011;62600;55.732;37.662;2022-09-03T02:18:58;1.90;;;1.20;;
74243;SDS011;62600;55.732;37.662;2022-09-03T02:20:35;1.92;;;1.00;;
74243;SDS011;62600;55.732;37.662;2022-09-03T02:22:06;1.48;;;1.15;;
74243;SDS011;62600;55.732;37.662;2022-09-03T02:23:39;2.75;;;1.02;;
74243;SDS011;62600;55.732;37.662;2022-09-03T02:25:11;2.22;;;1.20;;
74243;SDS011;62600;55.732;37.662;2022-09-03T02:26:42;1.55;;;1.00;;
74243;SDS011;62600;55.732;37.662;2022-09-03T02:28:13;1.35;;;1.17;;
74243;SDS011;62600;55.732;37.662;2022-09-03T02:29:44;3.03;;;0.90;;
74243;SDS011;62600;55.732;37.662;2022-09-03T02:31:15;6.40;;;2.10;;
74243;SDS011;62600;55.732;37.662;2022-09-03T02:32:45;1.35;;;0.98;;
74243;SDS011;62600;55.732;37.662;2022-09-03T02:34:16;2.55;;;1.33;;
74243;SDS011;62600;55.732;37.662;2022-09-03T02:35:46;3.95;;;1.25;;
74243;SDS011;62600;55.732;37.662;2022-09-03T02:37:18;2.55;;;0.93;;
74243;SDS011;62600;55.732;37.662;2022-09-03T02:38:49;2.58;;;1.15;;
74243;SDS011;62600;55.732;37.662;2022-09-03T02:40:19;1.52;;;1.10;;
74243;SDS011;62600;55.732;37.662;2022-09-03T02:41:50;2.60;;;1.30;;
74243;SDS011;62600;55.732;37.662;2022-09-03T02:45:24;2.88;;;1.10;;
74243;SDS011;62600;55.732;37.662;2022-09-03T02:47:02;4.75;;;1.25;;
74243;SDS011;62600;55.732;37.662;2022-09-03T02:48:34;1.98;;;1.15;;
74243;SDS011;62600;55.732;37.662;2022-09-03T02:50:05;1.95;;;1.10;;
74243;SDS011;62600;55.732;37.662;2022-09-03T02:51:37;1.85;;;1.02;;
74243;SDS011;62600;55.732;37.662;2022-09-03T02:53:09;2.65;;;1.10;;
74243;SDS011;62600;55.732;37.662;2022-09-03T02:54:39;1.67;;;1.08;;
74243;SDS011;62600;55.732;37.662;2022-09-03T02:56:10;2.58;;;1.00;;
74243;SDS011;62600;55.732;37.662;2022-09-03T02:57:41;2.17;;;0.90;;
74243;SDS011;62600;55.732;37.662;2022-09-03T02:59:11;1.30;;;1.10;;
74243;SDS011;62600;55.732;37.662;2022-09-03T03:00:42;3.35;;;1.13;;
74243;SDS011;62600;55.732;37.662;2022-09-03T03:02:13;2.53;;;1.55;;
74243;SDS011;62600;55.732;37.662;2022-09-03T03:03:43;3.20;;;1.15;;
74243;SDS011;62600;55.732;37.662;2022-09-03T03:05:15;1.75;;;1.10;;
74243;SDS011;62600;55.732;37.662;2022-09-03T03:06:52;1.73;;;1.08;;
74243;SDS011;62600;55.732;37.662;2022-09-03T03:08:24;2.95;;;1.20;;
74243;SDS011;62600;55.732;37.662;2022-09-03T03:09:58;2.45;;;1.05;;
74243;SDS011;62600;55.732;37.662;2022-09-03T03:11:28;1.52;;;1.00;;
74243;SDS011;62600;55.732;37.662;2022-09-03T03:12:59;1.35;;;1.00;;
74243;SDS011;62600;55.732;37.662;2022-09-03T03:14:30;2.15;;;1.00;;
74243;SDS011;62600;55.732;37.662;2022-09-03T03:16:02;2.30;;;1.15;;
74243;SDS011;62600;55.732;37.662;2022-09-03T03:17:37;1.40;;;1.15;;
74243;SDS011;62600;55.732;37.662;2022-09-03T03:19:07;2.00;;;1.05;;
74243;SDS011;62600;55.732;37.662;2022-09-03T03:20:37;1.90;;;1.10;;
74243;SDS011;62600;55.732;37.662;2022-09-03T03:22:08;1.90;;;1.20;;
74243;SDS011;62600;55.732;37.662;2022-09-03T03:23:39;3.22;;;1.30;;
74243;SDS011;62600;55.732;37.662;2022-09-03T03:25:10;3.83;;;1.45;;
74243;SDS011;62600;55.732;37.662;2022-09-03T03:26:40;3.05;;;1.10;;
74243;SDS011;62600;55.732;37.662;2022-09-03T03:28:11;2.15;;;1.30;;
74243;SDS011;62600;55.732;37.662;2022-09-03T03:29:42;1.52;;;1.10;;
74243;SDS011;62600;55.732;37.662;2022-09-03T03:31:17;2.17;;;1.30;;
74243;SDS011;62600;55.732;37.662;2022-09-03T03:32:51;2.67;;;1.42;;
74243;SDS011;62600;55.732;37.662;2022-09-03T03:34:22;2.67;;;1.42;;
74243;SDS011;62600;55.732;37.662;2022-09-03T03:35:53;1.77;;;1.40;;
74243;SDS011;62600;55.732;37.662;2022-09-03T03:37:23;2.05;;;1.13;;
74243;SDS011;62600;55.732;37.662;2022-09-03T03:38:54;1.63;;;1.02;;
74243;SDS011;62600;55.732;37.662;2022-09-03T03:40:26;3.03;;;1.20;;
74243;SDS011;62600;55.732;37.662;2022-09-03T03:41:57;1.98;;;1.27;;
74243;SDS011;62600;55.732;37.662;2022-09-03T03:43:27;2.45;;;1.25;;
74243;SDS011;62600;55.732;37.662;2022-09-03T03:44:57;2.67;;;1.15;;
74243;SDS011;62600;55.732;37.662;2022-09-03T03:46:29;2.00;;;1.30;;
74243;SDS011;62600;55.732;37.662;2022-09-03T03:48:04;2.28;;;1.20;;
74243;SDS011;62600;55.732;37.662;2022-09-03T03:49:34;3.28;;;1.60;;
74243;SDS011;62600;55.732;37.662;2022-09-03T03:51:07;2.95;;;1.50;;
74243;SDS011;62600;55.732;37.662;2022-09-03T03:52:38;1.75;;;1.10;;
74243;SDS011;62600;55.732;37.662;2022-09-03T03:54:09;2.95;;;1.30;;
74243;SDS011;62600;55.732;37.662;2022-09-03T03:55:39;2.45;;;1.30;;
74243;SDS011;62600;55.732;37.662;2022-09-03T03:57:11;2.33;;;1.40;;
74243;SDS011;62600;55.732;37.662;2022-09-03T03:58:42;1.45;;;1.10;;
74243;SDS011;62600;55.732;37.662;2022-09-03T04:00:13;1.80;;;1.58;;
74243;SDS011;62600;55.732;37.662;2022-09-03T04:01:44;2.42;;;1.63;;
74243;SDS011;62600;55.732;37.662;2022-09-03T04:03:14;2.38;;;1.70;;
74243;SDS011;62600;55.732;37.662;2022-09-03T04:04:45;2.30;;;1.67;;
74243;SDS011;62600;55.732;37.662;2022-09-03T04:06:18;4.93;;;1.95;;
74243;SDS011;62600;55.732;37.662;2022-09-03T04:07:50;1.80;;;1.48;;
74243;SDS011;62600;55.732;37.662;2022-09-03T04:09:20;3.03;;;1.70;;
74243;SDS011;62600;55.732;37.662;2022-09-03T04:10:51;1.50;;;1.40;;
74243;SDS011;62600;55.732;37.662;2022-09-03T04:12:21;2.65;;;1.65;;
74243;SDS011;62600;55.732;37.662;2022-09-03T04:13:52;2.88;;;1.70;;
74243;SDS011;62600;55.732;37.662;2022-09-03T04:15:23;3.08;;;1.52;;
74243;SDS011;62600;55.732;37.662;2022-09-03T04:16:53;1.88;;;1.45;;
74243;SDS011;62600;55.732;37.662;2022-09-03T04:18:25;2.72;;;1.60;;
74243;SDS011;62600;55.732;37.662;2022-09-03T04:19:56;1.90;;;1.63;;
74243;SDS011;62600;55.732;37.662;2022-09-03T04:21:27;3.72;;;1.73;;
74243;SDS011;62600;55.732;37.662;2022-09-03T04:24:30;2.75;;;2.03;;
74243;SDS011;62600;55.732;37.662;2022-09-03T04:26:01;3.90;;;1.90;;
74243;SDS011;62600;55.732;37.662;2022-09-03T04:27:32;3.75;;;1.80;;
74243;SDS011;62600;55.732;37.662;2022-09-03T04:29:04;3.13;;;1.80;;
74243;SDS011;62600;55.732;37.662;2022-09-03T04:30:36;2.17;;;1.80;;
74243;SDS011;62600;55.732;37.662;2022-09-03T04:32:06;3.50;;;1.70;;
74243;SDS011;62600;55.732;37.662;2022-09-03T04:33:56;2.75;;;1.63;;
74243;SDS011;62600;55.732;37.662;2022-09-03T04:35:26;4.85;;;2.20;;
74243;SDS011;62600;55.732;37.662;2022-09-03T04:37:02;2.17;;;1.90;;
74243;SDS011;62600;55.732;37.662;2022-09-03T04:38:33;2.53;;;1.85;;
74243;SDS011;62600;55.732;37.662;2022-09-03T04:40:05;4.50;;;2.10;;
74243;SDS011;62600;55.732;37.662;2022-09-03T04:41:36;5.03;;;2.25;;
74243;SDS011;62600;55.732;37.662;2022-09-03T04:43:07;2.90;;;1.67;;
74243;SDS011;62600;55.732;37.662;2022-09-03T04:44:37;3.58;;;2.20;;
74243;SDS011;62600;55.732;37.662;2022-09-03T04:46:11;3.00;;;2.30;;
74243;SDS011;62600;55.732;37.662;2022-09-03T04:47:42;2.75;;;1.77;;
74243;SDS011;62600;55.732;37.662;2022-09-03T04:49:15;3.47;;;2.10;;
74243;SDS011;62600;55.732;37.662;2022-09-03T04:50:46;4.70;;;2.28;;
74243;SDS011;62600;55.732;37.662;2022-09-03T04:52:16;4.72;;;2.20;;
74243;SDS011;62600;55.732;37.662;2022-09-03T04:53:47;4.55;;;2.50;;
74243;SDS011;62600;55.732;37.662;2022-09-03T04:55:23;4.32;;;2.28;;
74243;SDS011;62600;55.732;37.662;2022-09-03T04:56:53;3.90;;;2.10;;
74243;SDS011;62600;55.732;37.662;2022-09-03T04:58:23;3.03;;;1.80;;
74243;SDS011;62600;55.732;37.662;2022-09-03T04:59:54;5.13;;;2.08;;
74243;SDS011;62600;55.732;37.662;2022-09-03T05:01:26;2.55;;;1.98;;
74243;SDS011;62600;55.732;37.662;2022-09-03T05:03:01;3.58;;;1.98;;
74243;SDS011;62600;55.732;37.662;2022-09-03T05:04:34;4.30;;;2.63;;
74243;SDS011;62600;55.732;37.662;2022-09-03T05:06:05;4.03;;;2.20;;
74243;SDS011;62600;55.732;37.662;2022-09-03T05:07:36;3.13;;;2.03;;
74243;SDS011;62600;55.732;37.662;2022-09-03T05:09:07;3.20;;;1.98;;
74243;SDS011;62600;55.732;37.662;2022-09-03T05:10:37;3.38;;;1.90;;
74243;SDS011;62600;55.732;37.662;2022-09-03T05:12:08;3.00;;;2.20;;
74243;SDS011;62600;55.732;37.662;2022-09-03T05:13:40;2.63;;;2.10;;
74243;SDS011;62600;55.732;37.662;2022-09-03T05:15:10;3.20;;;2.10;;
74243;SDS011;62600;55.732;37.662;2022-09-03T05:16:41;5.07;;;2.05;;
74243;SDS011;62600;55.732;37.662;2022-09-03T05:18:11;3.78;;;1.98;;
74243;SDS011;62600;55.732;37.662;2022-09-03T05:19:42;3.00;;;1.80;;
74243;SDS011;62600;55.732;37.662;2022-09-03T05:21:13;3.47;;;1.80;;
74243;SDS011;62600;55.732;37.662;2022-09-03T05:22:45;4.07;;;1.83;;
74243;SDS011;62600;55.732;37.662;2022-09-03T05:24:15;3.60;;;2.15;;
74243;SDS011;62600;55.732;37.662;2022-09-03T05:25:54;2.03;;;1.73;;
74243;SDS011;62600;55.732;37.662;2022-09-03T05:27:28;3.95;;;2.28;;
74243;SDS011;62600;55.732;37.662;2022-09-03T05:29:01;5.55;;;3.17;;
74243;SDS011;62600;55.732;37.662;2022-09-03T05:30:36;7.38;;;3.40;;
74243;SDS011;62600;55.732;37.662;2022-09-03T05:32:07;5.40;;;3.72;;
74243;SDS011;62600;55.732;37.662;2022-09-03T05:33:39;5.20;;;2.90;;
74243;SDS011;62600;55.732;37.662;2022-09-03T05:35:13;3.42;;;1.90;;
74243;SDS011;62600;55.732;37.662;2022-09-03T05:36:44;3.15;;;2.08;;
74243;SDS011;62600;55.732;37.662;2022-09-03T05:38:15;5.55;;;2.80;;
74243;SDS011;62600;55.732;37.662;2022-09-03T05:39:47;5.45;;;1.77;;
74243;SDS011;62600;55.732;37.662;2022-09-03T05:41:17;3.45;;;2.22;;
74243;SDS011;62600;55.732;37.662;2022-09-03T05:42:52;3.35;;;2.30;;
74243;SDS011;62600;55.732;37.662;2022-09-03T05:44:24;5.15;;;2.00;;
74243;SDS011;62600;55.732;37.662;2022-09-03T05:45:58;5.93;;;2.30;;
74243;SDS011;62600;55.732;37.662;2022-09-03T05:49:04;2.40;;;1.73;;
74243;SDS011;62600;55.732;37.662;2022-09-03T05:50:35;2.33;;;1.38;;
74243;SDS011;62600;55.732;37.662;2022-09-03T05:52:06;5.68;;;1.88;;
74243;SDS011;62600;55.732;37.662;2022-09-03T05:53:37;4.18;;;2.00;;
74243;SDS011;62600;55.732;37.662;2022-09-03T05:56:40;4.25;;;1.80;;
74243;SDS011;62600;55.732;37.662;2022-09-03T05:58:11;3.00;;;1.67;;
74243;SDS011;62600;55.732;37.662;2022-09-03T05:59:41;1.80;;;1.67;;
74243;SDS011;62600;55.732;37.662;2022-09-03T06:01:13;3.00;;;1.52;;
74243;SDS011;62600;55.732;37.662;2022-09-03T06:02:49;5.22;;;2.08;;
74243;SDS011;62600;55.732;37.662;2022-09-03T06:04:21;4.00;;;2.17;;
74243;SDS011;62600;55.732;37.662;2022-09-03T06:05:52;3.50;;;1.77;;
74243;SDS011;62600;55.732;37.662;2022-09-03T06:07:23;2.80;;;1.90;;
74243;SDS011;62600;55.732;37.662;2022-09-03T06:08:55;3.08;;;1.52;;
74243;SDS011;62600;55.732;37.662;2022-09-03T06:10:27;3.13;;;1.73;;
74243;SDS011;62600;55.732;37.662;2022-09-03T06:11:58;3.15;;;1.80;;
74243;SDS011;62600;55.732;37.662;2022-09-03T06:13:29;2.42;;;1.60;;
74243;SDS011;62600;55.732;37.662;2022-09-03T06:15:01;3.35;;;1.83;;
74243;SDS011;62600;55.732;37.662;2022-09-03T06:16:33;4.03;;;2.13;;
74243;SDS011;62600;55.732;37.662;2022-09-03T06:18:04;2.70;;;1.60;;
74243;SDS011;62600;55.732;37.662;2022-09-03T06:19:35;3.08;;;1.90;;
74243;SDS011;62600;55.732;37.662;2022-09-03T06:21:06;2.47;;;2.17;;
74243;SDS011;62600;55.732;37.662;2022-09-03T06:22:36;2.85;;;1.85;;
74243;SDS011;62600;55.732;37.662;2022-09-03T06:24:08;3.45;;;1.85;;
74243;SDS011;62600;55.732;37.662;2022-09-03T06:25:40;3.53;;;2.00;;
74243;SDS011;62600;55.732;37.662;2022-09-03T06:27:11;1.85;;;1.40;;
74243;SDS011;62600;55.732;37.662;2022-09-03T06:28:42;2.30;;;1.40;;
74243;SDS011;62600;55.732;37.662;2022-09-03T06:30:13;3.17;;;1.42;;
74243;SDS011;62600;55.732;37.662;2022-09-03T06:31:44;3.35;;;1.23;;
74243;SDS011;62600;55.732;37.662;2022-09-03T06:33:17;4.28;;;1.55;;
74243;SDS011;62600;55.732;37.662;2022-09-03T06:34:48;4.05;;;1.40;;
74243;SDS011;62600;55.732;37.662;2022-09-03T06:36:18;2.38;;;1.30;;
74243;SDS011;62600;55.732;37.662;2022-09-03T06:37:50;1.55;;;1.10;;
74243;SDS011;62600;55.732;37.662;2022-09-03T06:39:21;1.25;;;1.00;;
74243;SDS011;62600;55.732;37.662;2022-09-03T06:40:52;3.17;;;1.20;;
74243;SDS011;62600;55.732;37.662;2022-09-03T06:42:28;2.42;;;1.00;;
74243;SDS011;62600;55.732;37.662;2022-09-03T06:44:00;1.92;;;1.20;;
74243;SDS011;62600;55.732;37.662;2022-09-03T06:45:32;2.13;;;1.17;;
74243;SDS011;62600;55.732;37.662;2022-09-03T06:47:02;4.40;;;1.13;;
74243;SDS011;62600;55.732;37.662;2022-09-03T06:48:33;1.92;;;1.10;;
74243;SDS011;62600;55.732;37.662;2022-09-03T06:50:05;1.40;;;0.90;;
74243;SDS011;62600;55.732;37.662;2022-09-03T06:51:35;2.03;;;1.05;;
74243;SDS011;62600;55.732;37.662;2022-09-03T06:53:07;3.03;;;1.30;;
74243;SDS011;62600;55.732;37.662;2022-09-03T06:54:38;2.60;;;1.27;;
74243;SDS011;62600;55.732;37.662;2022-09-03T06:56:12;2.33;;;1.10;;
74243;SDS011;62600;55.732;37.662;2022-09-03T06:57:47;1.70;;;1.27;;
74243;SDS011;62600;55.732;37.662;2022-09-03T06:59:18;1.52;;;1.08;;
74243;SDS011;62600;55.732;37.662;2022-09-03T07:00:49;2.45;;;1.10;;
74243;SDS011;62600;55.732;37.662;2022-09-03T07:02:21;2.53;;;1.20;;
74243;SDS011;62600;55.732;37.662;2022-09-03T07:03:56;2.10;;;1.10;;
74243;SDS011;62600;55.732;37.662;2022-09-03T07:05:27;3.13;;;1.20;;
74243;SDS011;62600;55.732;37.662;2022-09-03T07:06:59;2.90;;;1.10;;
74243;SDS011;62600;55.732;37.662;2022-09-03T07:08:30;2.25;;;1.00;;
74243;SDS011;62600;55.732;37.662;2022-09-03T07:11:32;1.27;;;1.02;;
74243;SDS011;62600;55.732;37.662;2022-09-03T07:13:04;2.53;;;1.10;;
74243;SDS011;62600;55.732;37.662;2022-09-03T07:14:35;1.52;;;0.88;;
74243;SDS011;62600;55.732;37.662;2022-09-03T07:16:07;2.05;;;1.00;;
74243;SDS011;62600;55.732;37.662;2022-09-03T07:17:39;2.28;;;1.00;;
74243;SDS011;62600;55.732;37.662;2022-09-03T07:19:10;2.35;;;1.30;;
74243;SDS011;62600;55.732;37.662;2022-09-03T07:20:42;2.58;;;0.90;;
74243;SDS011;62600;55.732;37.662;2022-09-03T07:22:12;1.38;;;0.90;;
74243;SDS011;62600;55.732;37.662;2022-09-03T07:23:43;1.58;;;1.10;;
74243;SDS011;62600;55.732;37.662;2022-09-03T07:25:14;3.20;;;1.10;;
74243;SDS011;62600;55.732;37.662;2022-09-03T07:26:45;1.00;;;0.90;;
74243;SDS011;62600;55.732;37.662;2022-09-03T07:28:16;3.17;;;1.10;;
74243;SDS011;62600;55.732;37.662;2022-09-03T07:29:46;2.35;;;1.10;;
74243;SDS011;62600;55.732;37.662;2022-09-03T07:31:18;3.08;;;1.10;;
74243;SDS011;62600;55.732;37.662;2022-09-03T07:32:54;1.50;;;1.00;;
74243;SDS011;62600;55.732;37.662;2022-09-03T07:34:25;2.03;;;1.10;;
74243;SDS011;62600;55.732;37.662;2022-09-03T07:36:00;1.52;;;1.20;;
74243;SDS011;62600;55.732;37.662;2022-09-03T07:37:36;1.63;;;0.98;;
74243;SDS011;62600;55.732;37.662;2022-09-03T07:39:07;1.38;;;1.00;;
74243;SDS011;62600;55.732;37.662;2022-09-03T07:40:40;2.78;;;1.10;;
74243;SDS011;62600;55.732;37.662;2022-09-03T07:42:11;1.60;;;1.20;;
74243;SDS011;62600;55.732;37.662;2022-09-03T07:43:42;3.45;;;1.20;;
74243;SDS011;62600;55.732;37.662;2022-09-03T07:45:17;3.72;;;1.10;;
74243;SDS011;62600;55.732;37.662;2022-09-03T07:46:47;1.88;;;1.05;;
74243;SDS011;62600;55.732;37.662;2022-09-03T07:48:19;1.80;;;1.20;;
74243;SDS011;62600;55.732;37.662;2022-09-03T07:49:50;2.67;;;1.15;;
74243;SDS011;62600;55.732;37.662;2022-09-03T07:51:21;4.60;;;0.93;;
74243;SDS011;62600;55.732;37.662;2022-09-03T07:52:57;1.50;;;0.70;;
74243;SDS011;62600;55.732;37.662;2022-09-03T07:54:28;2.42;;;1.20;;
74243;SDS011;62600;55.732;37.662;2022-09-03T07:56:02;1.90;;;1.00;;
74243;SDS011;62600;55.732;37.662;2022-09-03T07:57:34;3.15;;;1.40;;
74243;SDS011;62600;55.732;37.662;2022-09-03T07:59:05;1.60;;;0.98;;
74243;SDS011;62600;55.732;37.662;2022-09-03T08:00:36;1.30;;;0.90;;
74243;SDS011;62600;55.732;37.662;2022-09-03T08:02:07;1.38;;;0.85;;
74243;SDS011;62600;55.732;37.662;2022-09-03T08:03:38;1.13;;;0.70;;
74243;SDS011;62600;55.732;37.662;2022-09-03T08:05:12;1.98;;;1.15;;
74243;SDS011;62600;55.732;37.662;2022-09-03T08:06:43;1.05;;;0.82;;
74243;SDS011;62600;55.732;37.662;2022-09-03T08:08:13;3.85;;;1.20;;
74243;SDS011;62600;55.732;37.662;2022-09-03T08:09:44;2.03;;;1.20;;
74243;SDS011;62600;55.732;37.662;2022-09-03T08:11:15;2.22;;;1.10;;
74243;SDS011;62600;55.732;37.662;2022-09-03T08:12:48;1.63;;;1.00;;
74243;SDS011;62600;55.732;37.662;2022-09-03T08:14:19;2.40;;;0.95;;
74243;SDS011;62600;55.732;37.662;2022-09-03T08:15:53;1.95;;;1.23;;
74243;SDS011;62600;55.732;37.662;2022-09-03T08:17:25;1.63;;;0.90;;
74243;SDS011;62600;55.732;37.662;2022-09-03T08:18:56;1.88;;;0.80;;
74243;SDS011;62600;55.732;37.662;2022-09-03T08:20:27;1.70;;;0.82;;
74243;SDS011;62600;55.732;37.662;2022-09-03T08:21:57;3.67;;;1.20;;
74243;SDS011;62600;55.732;37.662;2022-09-03T08:23:29;1.77;;;1.10;;
74243;SDS011;62600;55.732;37.662;2022-09-03T08:24:59;2.55;;;1.23;;
74243;SDS011;62600;55.732;37.662;2022-09-03T08:26:31;2.85;;;1.25;;
74243;SDS011;62600;55.732;37.662;2022-09-03T08:28:04;2.28;;;1.30;;
74243;SDS011;62600;55.732;37.662;2022-09-03T08:29:35;3.35;;;1.00;;
74243;SDS011;62600;55.732;37.662;2022-09-03T08:31:06;2.20;;;1.00;;
74243;SDS011;62600;55.732;37.662;2022-09-03T08:32:40;4.30;;;1.10;;
74243;SDS011;62600;55.732;37.662;2022-09-03T08:34:10;2.42;;;1.02;;
74243;SDS011;62600;55.732;37.662;2022-09-03T08:35:51;1.50;;;1.00;;
74243;SDS011;62600;55.732;37.662;2022-09-03T08:37:23;2.42;;;1.17;;
74243;SDS011;62600;55.732;37.662;2022-09-03T08:39:00;1.55;;;1.20;;
74243;SDS011;62600;55.732;37.662;2022-09-03T08:40:38;2.45;;;1.50;;
74243;SDS011;62600;55.732;37.662;2022-09-03T08:42:32;2.05;;;1.00;;
74243;SDS011;62600;55.732;37.662;2022-09-03T08:46:14;1.92;;;1.00;;
74243;SDS011;62600;55.732;37.662;2022-09-03T08:49:23;3.20;;;1.00;;
74243;SDS011;62600;55.732;37.662;2022-09-03T08:51:00;1.17;;;0.75;;
74243;SDS011;62600;55.732;37.662;2022-09-03T08:52:53;2.28;;;0.90;;
74243;SDS011;62600;55.732;37.662;2022-09-03T08:54:30;3.75;;;1.08;;
74243;SDS011;62600;55.732;37.662;2022-09-03T08:56:09;1.98;;;1.10;;
74243;SDS011;62600;55.732;37.662;2022-09-03T08:57:42;2.05;;;1.20;;
74243;SDS011;62600;55.732;37.662;2022-09-03T08:59:17;1.33;;;1.02;;
74243;SDS011;62600;55.732;37.662;2022-09-03T09:08:08;1.10;;;1.00;;
74243;SDS011;62600;55.732;37.662;2022-09-03T09:09:46;4.15;;;1.70;;
74243;SDS011;62600;55.732;37.662;2022-09-03T09:21:27;1.83;;;0.85;;
74243;SDS011;62600;55.732;37.662;2022-09-03T09:22:42;1.00;;;0.73;;
74243;SDS011;62600;55.732;37.662;2022-09-03T09:24:22;1.00;;;0.80;;
74243;SDS011;62600;55.732;37.662;2022-09-03T09:25:55;1.30;;;0.75;;
74243;SDS011;62600;55.732;37.662;2022-09-03T09:27:30;1.70;;;0.90;;
74243;SDS011;62600;55.732;37.662;2022-09-03T09:29:06;1.60;;;0.80;;
74243;SDS011;62600;55.732;37.662;2022-09-03T09:30:39;1.95;;;0.80;;
74243;SDS011;62600;55.732;37.662;2022-09-03T09:32:11;1.50;;;0.70;;
74243;SDS011;62600;55.732;37.662;2022-09-03T09:33:43;0.70;;;0.70;;
74243;SDS011;62600;55.732;37.662;2022-09-03T09:35:15;1.10;;;0.70;;
74243;SDS011;62600;55.732;37.662;2022-09-03T09:36:48;2.25;;;0.80;;
74243;SDS011;62600;55.732;37.662;2022-09-03T09:38:32;0.93;;;0.70;;
74243;SDS011;62600;55.732;37.662;2022-09-03T09:40:08;1.13;;;0.80;;
74243;SDS011;62600;55.732;37.662;2022-09-03T09:41:39;1.40;;;0.93;;
74243;SDS011;62600;55.732;37.662;2022-09-03T09:44:45;1.55;;;1.08;;
74243;SDS011;62600;55.732;37.662;2022-09-03T09:46:19;2.20;;;1.08;;
74243;SDS011;62600;55.732;37.662;2022-09-03T09:47:55;3.70;;;1.65;;
74243;SDS011;62600;55.732;37.662;2022-09-03T09:49:33;2.20;;;1.23;;
74243;SDS011;62600;55.732;37.662;2022-09-03T09:51:10;1.10;;;0.90;;
74243;SDS011;62600;55.732;37.662;2022-09-03T09:52:47;1.20;;;0.75;;
74243;SDS011;62600;55.732;37.662;2022-09-03T09:54:29;2.40;;;0.80;;
74243;SDS011;62600;55.732;37.662;2022-09-03T09:56:00;1.48;;;0.90;;
74243;SDS011;62600;55.732;37.662;2022-09-03T09:57:33;1.58;;;0.85;;
74243;SDS011;62600;55.732;37.662;2022-09-03T09:59:06;1.15;;;0.80;;
74243;SDS011;62600;55.732;37.662;2022-09-03T10:00:38;1.35;;;0.70;;
74243;SDS011;62600;55.732;37.662;2022-09-03T10:02:12;2.13;;;0.90;;
74243;SDS011;62600;55.732;37.662;2022-09-03T10:03:50;0.80;;;0.70;;
74243;SDS011;62600;55.732;37.662;2022-09-03T10:05:26;1.58;;;0.60;;
74243;SDS011;62600;55.732;37.662;2022-09-03T10:07:19;2.30;;;0.85;;
74243;SDS011;62600;55.732;37.662;2022-09-03T10:09:13;1.38;;;0.73;;
74243;SDS011;62600;55.732;37.662;2022-09-03T10:10:48;2.72;;;0.80;;
74243;SDS011;62600;55.732;37.662;2022-09-03T10:12:39;1.88;;;0.80;;
74243;SDS011;62600;55.732;37.662;2022-09-03T10:14:27;1.60;;;0.90;;
74243;SDS011;62600;55.732;37.662;2022-09-03T10:16:05;0.90;;;0.60;;
74243;SDS011;62600;55.732;37.662;2022-09-03T10:18:07;1.33;;;0.82;;
74243;SDS011;62600;55.732;37.662;2022-09-03T10:20:10;1.85;;;0.77;;
74243;SDS011;62600;55.732;37.662;2022-09-03T10:27:26;1.98;;;0.77;;
74243;SDS011;62600;55.732;37.662;2022-09-03T10:28:58;2.83;;;0.80;;
74243;SDS011;62600;55.732;37.662;2022-09-03T10:30:31;1.38;;;0.70;;
74243;SDS011;62600;55.732;37.662;2022-09-03T10:35:59;1.45;;;0.70;;
74243;SDS011;62600;55.732;37.662;2022-09-03T10:39:41;1.98;;;0.70;;
74243;SDS011;62600;55.732;37.662;2022-09-03T10:45:34;0.80;;;0.60;;
74243;SDS011;62600;55.732;37.662;2022-09-03T10:47:31;1.90;;;0.57;;
74243;SDS011;62600;55.732;37.662;2022-09-03T10:49:19;1.58;;;0.90;;
74243;SDS011;62600;55.732;37.662;2022-09-03T10:55:44;1.48;;;0.90;;
74243;SDS011;62600;55.732;37.662;2022-09-03T10:56:56;1.35;;;0.63;;
74243;SDS011;62600;55.732;37.662;2022-09-03T11:00:25;3.83;;;1.02;;
74243;SDS011;62600;55.732;37.662;2022-09-03T11:04:06;2.17;;;0.70;;
74243;SDS011;62600;55.732;37.662;2022-09-03T11:07:52;1.23;;;0.70;;
74243;SDS011;62600;55.732;37.662;2022-09-03T11:10:10;2.30;;;0.65;;